sensor_id;sensor_type;location;lat;lon;timestamp;pressure;altitude;pressure_sealevel;temperature;humidity
37206;BME280;23099;42.636;23.198;2023-05-17T00:00:53;91446.03;;;12.60;100.00
37206;BME280;23099;42.636;23.198;2023-05-17T00:03:20;91441.84;;;12.59;100.00
37206;BME280;23099;42.636;23.198;2023-05-17T00:05:48;91438.41;;;12.52;100.00
37206;BME280;23099;42.636;23.198;2023-05-17T00:08:15;91451.81;;;12.52;100.00
37206;BME280;23099;42.636;23.198;2023-05-17T00:10:42;91461.38;;;12.46;100.00
37206;BME280;23099;42.636;23.198;2023-05-17T00:13:08;91459.84;;;12.41;100.00
37206;BME280;23099;42.636;23.198;2023-05-17T00:15:35;91459.06;;;12.44;100.00
37206;BME280;23099;42.636;23.198;2023-05-17T00:18:02;91459.47;;;12.39;100.00
37206;BME280;23099;42.636;23.198;2023-05-17T00:20:28;91458.31;;;12.33;100.00
37206;BME280;23099;42.636;23.198;2023-05-17T00:22:56;91454.13;;;12.25;100.00
37206;BME280;23099;42.636;23.198;2023-05-17T00:25:23;91449.91;;;12.27;100.00
37206;BME280;23099;42.636;23.198;2023-05-17T00:27:50;91443.00;;;12.26;100.00
37206;BME280;23099;42.636;23.198;2023-05-17T00:30:16;91436.91;;;12.22;100.00
37206;BME280;23099;42.636;23.198;2023-05-17T00:32:43;91445.31;;;12.14;100.00
37206;BME280;23099;42.636;23.198;2023-05-17T00:35:11;91447.63;;;12.08;100.00
37206;BME280;23099;42.636;23.198;2023-05-17T00:37:37;91447.59;;;12.15;100.00
37206;BME280;23099;42.636;23.198;2023-05-17T00:40:08;91430.38;;;12.13;100.00
37206;BME280;23099;42.636;23.198;2023-05-17T00:42:35;91445.69;;;12.12;100.00
37206;BME280;23099;42.636;23.198;2023-05-17T00:45:02;91449.53;;;12.11;100.00
37206;BME280;23099;42.636;23.198;2023-05-17T00:47:29;91457.56;;;12.11;100.00
37206;BME280;23099;42.636;23.198;2023-05-17T00:49:55;91456.78;;;12.14;100.00
37206;BME280;23099;42.636;23.198;2023-05-17T00:52:22;91457.94;;;12.17;100.00
37206;BME280;23099;42.636;23.198;2023-05-17T00:54:49;91456.78;;;12.03;100.00
37206;BME280;23099;42.636;23.198;2023-05-17T00:57:18;91450.28;;;11.97;100.00
37206;BME280;23099;42.636;23.198;2023-05-17T00:59:46;91448.00;;;12.07;100.00
37206;BME280;23099;42.636;23.198;2023-05-17T01:02:12;91443.78;;;12.13;100.00
37206;BME280;23099;42.636;23.198;2023-05-17T01:04:40;91442.63;;;12.17;100.00
37206;BME280;23099;42.636;23.198;2023-05-17T01:07:06;91429.25;;;12.10;100.00
37206;BME280;23099;42.636;23.198;2023-05-17T01:09:34;91437.66;;;12.16;100.00
37206;BME280;23099;42.636;23.198;2023-05-17T01:12:07;91440.72;;;12.18;100.00
37206;BME280;23099;42.636;23.198;2023-05-17T01:14:46;91445.69;;;12.19;100.00
37206;BME280;23099;42.636;23.198;2023-05-17T01:17:21;91437.66;;;12.16;100.00
37206;BME280;23099;42.636;23.198;2023-05-17T01:19:59;91439.97;;;12.10;100.00
37206;BME280;23099;42.636;23.198;2023-05-17T01:22:38;91441.50;;;12.11;100.00
37206;BME280;23099;42.636;23.198;2023-05-17T01:25:26;91441.09;;;12.02;100.00
37206;BME280;23099;42.636;23.198;2023-05-17T01:27:58;91445.31;;;11.96;100.00
37206;BME280;23099;42.636;23.198;2023-05-17T01:30:28;91441.47;;;11.86;100.00
37206;BME280;23099;42.636;23.198;2023-05-17T01:32:56;91451.44;;;11.82;100.00
37206;BME280;23099;42.636;23.198;2023-05-17T01:35:24;91452.19;;;11.83;100.00
37206;BME280;23099;42.636;23.198;2023-05-17T01:37:51;91436.81;;;11.69;100.00
37206;BME280;23099;42.636;23.198;2023-05-17T01:40:18;91449.50;;;11.76;100.00
37206;BME280;23099;42.636;23.198;2023-05-17T01:42:48;91444.53;;;11.78;100.00
37206;BME280;23099;42.636;23.198;2023-05-17T01:45:22;91447.59;;;11.80;100.00
37206;BME280;23099;42.636;23.198;2023-05-17T01:47:57;91448.75;;;11.86;100.00
37206;BME280;23099;42.636;23.198;2023-05-17T01:50:28;91448.75;;;11.89;100.00
37206;BME280;23099;42.636;23.198;2023-05-17T01:53:00;91451.44;;;11.89;100.00
37206;BME280;23099;42.636;23.198;2023-05-17T01:55:33;91457.53;;;11.86;100.00
37206;BME280;23099;42.636;23.198;2023-05-17T01:58:06;91445.31;;;11.82;100.00
37206;BME280;23099;42.636;23.198;2023-05-17T02:00:35;91446.84;;;11.79;100.00
37206;BME280;23099;42.636;23.198;2023-05-17T02:03:03;91439.19;;;11.78;100.00
37206;BME280;23099;42.636;23.198;2023-05-17T02:05:30;91440.34;;;11.80;100.00
37206;BME280;23099;42.636;23.198;2023-05-17T02:07:56;91431.53;;;11.76;100.00
37206;BME280;23099;42.636;23.198;2023-05-17T02:10:23;91440.25;;;11.69;100.00
37206;BME280;23099;42.636;23.198;2023-05-17T02:12:50;91434.16;;;11.62;100.00
37206;BME280;23099;42.636;23.198;2023-05-17T02:15:16;91437.59;;;11.66;100.00
37206;BME280;23099;42.636;23.198;2023-05-17T02:17:44;91442.19;;;11.62;100.00
37206;BME280;23099;42.636;23.198;2023-05-17T02:20:11;91432.63;;;11.61;100.00
37206;BME280;23099;42.636;23.198;2023-05-17T02:22:38;91430.31;;;11.56;100.00
37206;BME280;23099;42.636;23.198;2023-05-17T02:25:06;91429.56;;;11.52;100.00
37206;BME280;23099;42.636;23.198;2023-05-17T02:27:32;91429.91;;;11.47;100.00
37206;BME280;23099;42.636;23.198;2023-05-17T02:29:59;91429.88;;;11.36;100.00
37206;BME280;23099;42.636;23.198;2023-05-17T02:32:26;91430.63;;;11.33;100.00
37206;BME280;23099;42.636;23.198;2023-05-17T02:34:55;91427.22;;;11.36;100.00
37206;BME280;23099;42.636;23.198;2023-05-17T02:37:21;91428.34;;;11.24;100.00
37206;BME280;23099;42.636;23.198;2023-05-17T02:39:48;91435.56;;;11.17;100.00
37206;BME280;23099;42.636;23.198;2023-05-17T02:42:15;91430.19;;;11.13;100.00
37206;BME280;23099;42.636;23.198;2023-05-17T02:44:42;91438.22;;;11.17;100.00
37206;BME280;23099;42.636;23.198;2023-05-17T02:47:08;91430.22;;;11.17;100.00
37206;BME280;23099;42.636;23.198;2023-05-17T02:49:35;91437.84;;;11.15;100.00
37206;BME280;23099;42.636;23.198;2023-05-17T02:52:03;91440.91;;;11.17;100.00
37206;BME280;23099;42.636;23.198;2023-05-17T02:54:30;91452.00;;;11.19;100.00
37206;BME280;23099;42.636;23.198;2023-05-17T02:56:57;91461.19;;;11.21;100.00
37206;BME280;23099;42.636;23.198;2023-05-17T02:59:24;91456.94;;;11.17;100.00
37206;BME280;23099;42.636;23.198;2023-05-17T03:01:51;91460.41;;;11.21;100.00
37206;BME280;23099;42.636;23.198;2023-05-17T03:04:17;91468.41;;;11.17;100.00
37206;BME280;23099;42.636;23.198;2023-05-17T03:06:44;91468.78;;;11.16;100.00
37206;BME280;23099;42.636;23.198;2023-05-17T03:09:13;91475.66;;;11.13;100.00
37206;BME280;23099;42.636;23.198;2023-05-17T03:11:39;91468.00;;;11.12;100.00
37206;BME280;23099;42.636;23.198;2023-05-17T03:14:06;91466.50;;;11.18;100.00
37206;BME280;23099;42.636;23.198;2023-05-17T03:16:33;91464.19;;;11.09;100.00
37206;BME280;23099;42.636;23.198;2023-05-17T03:18:59;91455.00;;;11.07;100.00
37206;BME280;23099;42.636;23.198;2023-05-17T03:21:26;91471.03;;;11.03;100.00
37206;BME280;23099;42.636;23.198;2023-05-17T03:23:53;91464.16;;;11.06;100.00
37206;BME280;23099;42.636;23.198;2023-05-17T03:26:21;91462.28;;;11.10;100.00
37206;BME280;23099;42.636;23.198;2023-05-17T03:28:48;91464.19;;;11.09;100.00
37206;BME280;23099;42.636;23.198;2023-05-17T03:31:15;91469.91;;;11.08;100.00
37206;BME280;23099;42.636;23.198;2023-05-17T03:33:43;91456.16;;;11.09;100.00
37206;BME280;23099;42.636;23.198;2023-05-17T03:36:09;91463.41;;;11.12;100.00
37206;BME280;23099;42.636;23.198;2023-05-17T03:38:36;91451.59;;;11.17;100.00
37206;BME280;23099;42.636;23.198;2023-05-17T03:41:03;91459.63;;;11.17;100.00
37206;BME280;23099;42.636;23.198;2023-05-17T03:43:31;91462.69;;;11.19;100.00
37206;BME280;23099;42.636;23.198;2023-05-17T03:45:58;91460.03;;;11.19;100.00
37206;BME280;23099;42.636;23.198;2023-05-17T03:48:24;91462.31;;;11.17;100.00
37206;BME280;23099;42.636;23.198;2023-05-17T03:50:51;91465.75;;;11.17;100.00
37206;BME280;23099;42.636;23.198;2023-05-17T03:53:18;91461.56;;;11.20;100.00
37206;BME280;23099;42.636;23.198;2023-05-17T03:55:45;91465.38;;;11.22;100.00
37206;BME280;23099;42.636;23.198;2023-05-17T03:58:11;91452.38;;;11.21;100.00
37206;BME280;23099;42.636;23.198;2023-05-17T04:00:39;91447.44;;;11.23;100.00
37206;BME280;23099;42.636;23.198;2023-05-17T04:03:06;91455.84;;;11.28;100.00
37206;BME280;23099;42.636;23.198;2023-05-17T04:05:33;91452.78;;;11.30;100.00
37206;BME280;23099;42.636;23.198;2023-05-17T04:07:59;91463.53;;;11.41;100.00
37206;BME280;23099;42.636;23.198;2023-05-17T04:10:26;91463.56;;;11.48;100.00
37206;BME280;23099;42.636;23.198;2023-05-17T04:12:52;91456.28;;;11.55;100.00
37206;BME280;23099;42.636;23.198;2023-05-17T04:15:19;91462.06;;;11.61;100.00
37206;BME280;23099;42.636;23.198;2023-05-17T04:17:47;91457.84;;;11.70;100.00
37206;BME280;23099;42.636;23.198;2023-05-17T04:20:14;91450.22;;;11.73;100.00
37206;BME280;23099;42.636;23.198;2023-05-17T04:22:41;91448.75;;;11.79;100.00
37206;BME280;23099;42.636;23.198;2023-05-17T04:25:08;91450.25;;;11.76;100.00
37206;BME280;23099;42.636;23.198;2023-05-17T04:27:35;91451.44;;;11.82;100.00
37206;BME280;23099;42.636;23.198;2023-05-17T04:30:01;91448.34;;;11.87;100.00
37206;BME280;23099;42.636;23.198;2023-05-17T04:32:28;91457.53;;;11.90;100.00
37206;BME280;23099;42.636;23.198;2023-05-17T04:34:56;91464.44;;;11.80;100.00
37206;BME280;23099;42.636;23.198;2023-05-17T04:37:23;91462.53;;;11.81;100.00
37206;BME280;23099;42.636;23.198;2023-05-17T04:39:50;91465.97;;;11.81;100.00
37206;BME280;23099;42.636;23.198;2023-05-17T04:42:17;91452.56;;;11.81;100.00
37206;BME280;23099;42.636;23.198;2023-05-17T04:44:43;91452.94;;;11.87;100.00
37206;BME280;23099;42.636;23.198;2023-05-17T04:47:11;91457.16;;;11.91;100.00
37206;BME280;23099;42.636;23.198;2023-05-17T04:49:37;91452.94;;;11.83;100.00
37206;BME280;23099;42.636;23.198;2023-05-17T04:52:06;91455.25;;;11.81;100.00
37206;BME280;23099;42.636;23.198;2023-05-17T04:54:32;91456.41;;;11.91;100.00
37206;BME280;23099;42.636;23.198;2023-05-17T04:56:59;91459.06;;;11.91;100.00
37206;BME280;23099;42.636;23.198;2023-05-17T04:59:26;91456.41;;;11.91;100.00
37206;BME280;23099;42.636;23.198;2023-05-17T05:01:52;91455.63;;;11.87;100.00
37206;BME280;23099;42.636;23.198;2023-05-17T05:04:19;91464.84;;;11.96;100.00
37206;BME280;23099;42.636;23.198;2023-05-17T05:06:46;91460.22;;;12.04;100.00
37206;BME280;23099;42.636;23.198;2023-05-17T05:09:14;91466.75;;;12.03;100.00
37206;BME280;23099;42.636;23.198;2023-05-17T05:11:41;91472.88;;;12.03;100.00
37206;BME280;23099;42.636;23.198;2023-05-17T05:14:07;91462.53;;;12.06;100.00
37206;BME280;23099;42.636;23.198;2023-05-17T05:16:34;91469.44;;;12.07;100.00
37206;BME280;23099;42.636;23.198;2023-05-17T05:19:01;91474.41;;;12.08;100.00
37206;BME280;23099;42.636;23.198;2023-05-17T05:21:29;91480.50;;;12.12;100.00
37206;BME280;23099;42.636;23.198;2023-05-17T05:23:55;91478.22;;;12.18;100.00
37206;BME280;23099;42.636;23.198;2023-05-17T05:26:23;91480.50;;;12.26;100.00
37206;BME280;23099;42.636;23.198;2023-05-17T05:28:50;91473.63;;;12.32;100.00
37206;BME280;23099;42.636;23.198;2023-05-17T05:31:17;91469.03;;;12.33;100.00
37206;BME280;23099;42.636;23.198;2023-05-17T05:33:43;91474.41;;;12.36;100.00
37206;BME280;23099;42.636;23.198;2023-05-17T05:36:10;91469.03;;;12.33;100.00
37206;BME280;23099;42.636;23.198;2023-05-17T05:38:37;91464.47;;;12.41;100.00
37206;BME280;23099;42.636;23.198;2023-05-17T05:41:03;91470.56;;;12.52;100.00
37206;BME280;23099;42.636;23.198;2023-05-17T05:43:31;91472.47;;;12.58;100.00
37206;BME280;23099;42.636;23.198;2023-05-17T05:46:00;91470.19;;;12.64;100.00
37206;BME280;23099;42.636;23.198;2023-05-17T05:48:26;91472.09;;;12.67;100.00
37206;BME280;23099;42.636;23.198;2023-05-17T05:50:53;91475.13;;;12.72;100.00
37206;BME280;23099;42.636;23.198;2023-05-17T05:53:20;91485.13;;;12.68;100.00
37206;BME280;23099;42.636;23.198;2023-05-17T05:55:46;91483.94;;;12.80;100.00
37206;BME280;23099;42.636;23.198;2023-05-17T05:58:13;91489.69;;;12.79;100.00
37206;BME280;23099;42.636;23.198;2023-05-17T06:00:41;91490.81;;;12.85;100.00
37206;BME280;23099;42.636;23.198;2023-05-17T06:03:08;91483.19;;;12.83;100.00
37206;BME280;23099;42.636;23.198;2023-05-17T06:05:35;91489.28;;;12.94;100.00
37206;BME280;23099;42.636;23.198;2023-05-17T06:08:02;91491.53;;;13.06;100.00
37206;BME280;23099;42.636;23.198;2023-05-17T06:10:29;91498.06;;;13.16;100.00
37206;BME280;23099;42.636;23.198;2023-05-17T06:12:56;91505.31;;;13.23;100.00
37206;BME280;23099;42.636;23.198;2023-05-17T06:15:23;91501.88;;;13.26;100.00
37206;BME280;23099;42.636;23.198;2023-05-17T06:17:51;91497.63;;;13.35;100.00
37206;BME280;23099;42.636;23.198;2023-05-17T06:20:18;91492.25;;;13.28;100.00
37206;BME280;23099;42.636;23.198;2023-05-17T06:22:45;91502.94;;;13.42;100.00
37206;BME280;23099;42.636;23.198;2023-05-17T06:25:11;91504.84;;;13.45;100.00
37206;BME280;23099;42.636;23.198;2023-05-17T06:27:38;91504.47;;;13.51;100.00
37206;BME280;23099;42.636;23.198;2023-05-17T06:30:06;91512.84;;;13.60;100.00
37206;BME280;23099;42.636;23.198;2023-05-17T06:32:33;91517.84;;;13.58;100.00
37206;BME280;23099;42.636;23.198;2023-05-17T06:35:02;91518.22;;;13.67;100.00
37206;BME280;23099;42.636;23.198;2023-05-17T06:37:28;91517.38;;;13.77;100.00
37206;BME280;23099;42.636;23.198;2023-05-17T06:40:01;91511.22;;;13.80;100.00
37206;BME280;23099;42.636;23.198;2023-05-17T06:42:29;91506.66;;;13.73;100.00
37206;BME280;23099;42.636;23.198;2023-05-17T06:44:56;91506.97;;;13.86;100.00
37206;BME280;23099;42.636;23.198;2023-05-17T06:47:23;91513.47;;;13.89;100.00
37206;BME280;23099;42.636;23.198;2023-05-17T06:49:49;91510.34;;;14.01;100.00
37206;BME280;23099;42.636;23.198;2023-05-17T06:52:18;91513.00;;;14.04;100.00
37206;BME280;23099;42.636;23.198;2023-05-17T06:54:45;91504.94;;;14.08;100.00
37206;BME280;23099;42.636;23.198;2023-05-17T06:57:11;91512.94;;;14.19;100.00
37206;BME280;23099;42.636;23.198;2023-05-17T06:59:38;91525.13;;;14.30;100.00
37206;BME280;23099;42.636;23.198;2023-05-17T07:02:05;91513.53;;;14.44;100.00
37206;BME280;23099;42.636;23.198;2023-05-17T07:04:32;91530.03;;;14.49;100.00
37206;BME280;23099;42.636;23.198;2023-05-17T07:06:58;91525.72;;;14.59;100.00
37206;BME280;23099;42.636;23.198;2023-05-17T07:09:27;91537.19;;;14.67;100.00
37206;BME280;23099;42.636;23.198;2023-05-17T07:11:53;91531.00;;;14.73;100.00
37206;BME280;23099;42.636;23.198;2023-05-17T07:14:20;91547.09;;;14.77;100.00
37206;BME280;23099;42.636;23.198;2023-05-17T07:16:47;91548.22;;;14.83;100.00
37206;BME280;23099;42.636;23.198;2023-05-17T07:19:13;91539.06;;;14.73;100.00
37206;BME280;23099;42.636;23.198;2023-05-17T07:21:40;91546.72;;;14.78;100.00
37206;BME280;23099;42.636;23.198;2023-05-17T07:24:07;91542.84;;;14.83;100.00
37206;BME280;23099;42.636;23.198;2023-05-17T07:26:35;91539.34;;;14.86;100.00
37206;BME280;23099;42.636;23.198;2023-05-17T07:29:02;91543.91;;;14.93;100.00
37206;BME280;23099;42.636;23.198;2023-05-17T07:31:30;91542.31;;;14.99;100.00
37206;BME280;23099;42.636;23.198;2023-05-17T07:33:57;91541.09;;;15.07;100.00
37206;BME280;23099;42.636;23.198;2023-05-17T07:36:25;91537.16;;;15.15;100.00
37206;BME280;23099;42.636;23.198;2023-05-17T07:38:55;91538.19;;;15.28;100.00
37206;BME280;23099;42.636;23.198;2023-05-17T07:41:21;91537.78;;;15.30;100.00
37206;BME280;23099;42.636;23.198;2023-05-17T07:43:49;91529.66;;;15.33;100.00
37206;BME280;23099;42.636;23.198;2023-05-17T07:46:16;91530.25;;;15.55;100.00
37206;BME280;23099;42.636;23.198;2023-05-17T07:48:43;91532.41;;;15.67;100.00
37206;BME280;23099;42.636;23.198;2023-05-17T07:51:10;91535.91;;;15.64;98.16
37206;BME280;23099;42.636;23.198;2023-05-17T07:53:37;91523.47;;;15.74;100.00
37206;BME280;23099;42.636;23.198;2023-05-17T07:56:04;91526.00;;;15.88;98.87
37206;BME280;23099;42.636;23.198;2023-05-17T07:58:31;91531.31;;;15.95;99.51
37206;BME280;23099;42.636;23.198;2023-05-17T08:00:59;91528.16;;;16.00;99.21
37206;BME280;23099;42.636;23.198;2023-05-17T08:03:26;91531.91;;;16.06;98.66
37206;BME280;23099;42.636;23.198;2023-05-17T08:05:53;91531.06;;;16.13;98.42
37206;BME280;23099;42.636;23.198;2023-05-17T08:08:20;91533.72;;;16.16;100.00
37206;BME280;23099;42.636;23.198;2023-05-17T08:10:47;91527.28;;;16.07;96.21
37206;BME280;23099;42.636;23.198;2023-05-17T08:13:14;91525.78;;;16.06;98.76
37206;BME280;23099;42.636;23.198;2023-05-17T08:15:40;91527.25;;;16.10;98.64
37206;BME280;23099;42.636;23.198;2023-05-17T08:18:10;91523.19;;;15.99;96.31
37206;BME280;23099;42.636;23.198;2023-05-17T08:20:38;91530.72;;;16.11;99.42
37206;BME280;23099;42.636;23.198;2023-05-17T08:23:05;91514.91;;;16.13;98.41
37206;BME280;23099;42.636;23.198;2023-05-17T08:25:32;91518.28;;;16.17;97.53
37206;BME280;23099;42.636;23.198;2023-05-17T08:27:58;91520.22;;;16.16;97.68
37206;BME280;23099;42.636;23.198;2023-05-17T08:30:25;91519.97;;;16.34;99.20
37206;BME280;23099;42.636;23.198;2023-05-17T08:32:52;91515.91;;;16.49;96.85
37206;BME280;23099;42.636;23.198;2023-05-17T08:35:21;91516.94;;;16.59;94.45
37206;BME280;23099;42.636;23.198;2023-05-17T08:37:48;91518.38;;;16.67;94.72
37206;BME280;23099;42.636;23.198;2023-05-17T08:40:15;91527.38;;;16.84;95.56
37206;BME280;23099;42.636;23.198;2023-05-17T08:42:45;91510.94;;;16.98;94.97
37206;BME280;23099;42.636;23.198;2023-05-17T08:45:12;91525.72;;;17.13;94.47
37206;BME280;23099;42.636;23.198;2023-05-17T08:47:40;91523.41;;;17.35;93.98
37206;BME280;23099;42.636;23.198;2023-05-17T08:50:09;91521.81;;;17.38;91.30
37206;BME280;23099;42.636;23.198;2023-05-17T08:52:38;91525.06;;;17.49;93.59
37206;BME280;23099;42.636;23.198;2023-05-17T08:55:06;91524.13;;;17.59;91.58
37206;BME280;23099;42.636;23.198;2023-05-17T08:57:34;91534.75;;;17.70;90.64
37206;BME280;23099;42.636;23.198;2023-05-17T09:00:02;91526.16;;;17.75;88.99
37206;BME280;23099;42.636;23.198;2023-05-17T09:02:31;91526.16;;;17.75;89.67
37206;BME280;23099;42.636;23.198;2023-05-17T09:04:58;91521.94;;;17.74;88.95
37206;BME280;23099;42.636;23.198;2023-05-17T09:07:25;91520.53;;;17.65;86.60
37206;BME280;23099;42.636;23.198;2023-05-17T09:09:53;91527.56;;;17.83;88.39
37206;BME280;23099;42.636;23.198;2023-05-17T09:12:20;91524.78;;;17.86;87.39
37206;BME280;23099;42.636;23.198;2023-05-17T09:14:47;91514.66;;;17.90;86.63
37206;BME280;23099;42.636;23.198;2023-05-17T09:17:16;91517.44;;;17.87;87.42
37206;BME280;23099;42.636;23.198;2023-05-17T09:19:44;91519.63;;;17.92;84.81
37206;BME280;23099;42.636;23.198;2023-05-17T09:22:12;91515.47;;;18.07;84.87
37206;BME280;23099;42.636;23.198;2023-05-17T09:24:40;91517.22;;;17.97;85.45
37206;BME280;23099;42.636;23.198;2023-05-17T09:27:13;91515.22;;;18.01;86.42
37206;BME280;23099;42.636;23.198;2023-05-17T09:29:40;91505.56;;;18.00;84.82
37206;BME280;23099;42.636;23.198;2023-05-17T09:32:14;91506.00;;;17.99;87.46
37206;BME280;23099;42.636;23.198;2023-05-17T09:34:41;91496.81;;;18.13;86.27
37206;BME280;23099;42.636;23.198;2023-05-17T09:37:14;91501.41;;;18.16;86.00
37206;BME280;23099;42.636;23.198;2023-05-17T09:39:41;91498.03;;;18.28;84.06
37206;BME280;23099;42.636;23.198;2023-05-17T09:42:10;91500.78;;;18.44;86.09
37206;BME280;23099;42.636;23.198;2023-05-17T09:44:49;91490.53;;;18.52;86.36
37206;BME280;23099;42.636;23.198;2023-05-17T09:47:22;91502.69;;;18.27;85.83
37206;BME280;23099;42.636;23.198;2023-05-17T09:49:49;91501.75;;;18.18;84.21
37206;BME280;23099;42.636;23.198;2023-05-17T09:52:17;91510.56;;;18.02;84.30
37206;BME280;23099;42.636;23.198;2023-05-17T09:54:50;91510.88;;;18.04;86.83
37206;BME280;23099;42.636;23.198;2023-05-17T09:57:19;91489.13;;;17.91;85.64
37206;BME280;23099;42.636;23.198;2023-05-17T09:59:46;91496.88;;;17.73;85.90
37206;BME280;23099;42.636;23.198;2023-05-17T10:02:19;91490.28;;;17.74;85.99
37206;BME280;23099;42.636;23.198;2023-05-17T10:04:47;91489.41;;;17.57;86.82
37206;BME280;23099;42.636;23.198;2023-05-17T10:07:17;91495.50;;;17.61;86.39
37206;BME280;23099;42.636;23.198;2023-05-17T10:09:46;91493.13;;;17.67;88.09
37206;BME280;23099;42.636;23.198;2023-05-17T10:12:15;91485.53;;;17.58;87.45
37206;BME280;23099;42.636;23.198;2023-05-17T10:14:44;91491.13;;;17.48;86.82
37206;BME280;23099;42.636;23.198;2023-05-17T10:17:11;91487.25;;;17.49;86.59
37206;BME280;23099;42.636;23.198;2023-05-17T10:19:38;91479.50;;;17.51;89.42
37206;BME280;23099;42.636;23.198;2023-05-17T10:22:06;91473.13;;;17.41;88.34
37206;BME280;23099;42.636;23.198;2023-05-17T10:24:33;91455.19;;;17.31;90.95
37206;BME280;23099;42.636;23.198;2023-05-17T10:27:01;91448.53;;;17.16;89.87
37206;BME280;23099;42.636;23.198;2023-05-17T10:29:29;91443.81;;;17.00;89.97
37206;BME280;23099;42.636;23.198;2023-05-17T10:32:02;91428.47;;;16.93;93.03
37206;BME280;23099;42.636;23.198;2023-05-17T10:34:30;91421.03;;;17.01;92.94
37206;BME280;23099;42.636;23.198;2023-05-17T10:36:58;91422.97;;;17.01;92.97
37206;BME280;23099;42.636;23.198;2023-05-17T10:39:26;91420.41;;;17.13;92.22
37206;BME280;23099;42.636;23.198;2023-05-17T10:41:55;91411.50;;;17.16;90.98
37206;BME280;23099;42.636;23.198;2023-05-17T10:44:22;91404.47;;;17.19;90.18
37206;BME280;23099;42.636;23.198;2023-05-17T10:46:51;91384.41;;;17.20;89.44
37206;BME280;23099;42.636;23.198;2023-05-17T10:49:23;91381.84;;;17.13;88.36
37206;BME280;23099;42.636;23.198;2023-05-17T10:51:51;91369.59;;;17.08;89.52
37206;BME280;23099;42.636;23.198;2023-05-17T10:54:17;91366.31;;;17.17;90.58
37206;BME280;23099;42.636;23.198;2023-05-17T10:56:48;91369.38;;;17.19;88.52
37206;BME280;23099;42.636;23.198;2023-05-17T10:59:17;91383.03;;;17.12;86.10
37206;BME280;23099;42.636;23.198;2023-05-17T11:01:59;91375.28;;;17.14;87.13
37206;BME280;23099;42.636;23.198;2023-05-17T11:04:33;91372.47;;;17.17;85.75
37206;BME280;23099;42.636;23.198;2023-05-17T11:07:24;91377.19;;;17.33;86.08
37206;BME280;23099;42.636;23.198;2023-05-17T11:09:53;91383.06;;;17.48;84.90
37206;BME280;23099;42.636;23.198;2023-05-17T11:12:33;91377.31;;;17.46;85.23
37206;BME280;23099;42.636;23.198;2023-05-17T11:15:05;91371.50;;;17.47;84.46
37206;BME280;23099;42.636;23.198;2023-05-17T11:17:46;91378.06;;;17.46;85.71
37206;BME280;23099;42.636;23.198;2023-05-17T11:20:32;91380.25;;;17.35;86.31
37206;BME280;23099;42.636;23.198;2023-05-17T11:23:01;91388.97;;;17.23;87.29
37206;BME280;23099;42.636;23.198;2023-05-17T11:25:29;91398.19;;;17.25;86.23
37206;BME280;23099;42.636;23.198;2023-05-17T11:27:57;91410.28;;;17.17;86.03
37206;BME280;23099;42.636;23.198;2023-05-17T11:30:25;91414.50;;;16.99;85.25
37206;BME280;23099;42.636;23.198;2023-05-17T11:32:57;91415.19;;;17.03;87.45
37206;BME280;23099;42.636;23.198;2023-05-17T11:35:27;91424.34;;;17.09;86.42
37206;BME280;23099;42.636;23.198;2023-05-17T11:38:15;91421.44;;;17.19;86.82
37206;BME280;23099;42.636;23.198;2023-05-17T11:40:42;91429.63;;;17.16;87.40
37206;BME280;23099;42.636;23.198;2023-05-17T11:43:10;91411.56;;;17.13;87.37
37206;BME280;23099;42.636;23.198;2023-05-17T11:45:40;91412.66;;;17.15;87.71
37206;BME280;23099;42.636;23.198;2023-05-17T11:48:07;91423.84;;;16.94;87.55
37206;BME280;23099;42.636;23.198;2023-05-17T11:50:34;91424.66;;;16.91;88.27
37206;BME280;23099;42.636;23.198;2023-05-17T11:53:03;91430.22;;;16.84;88.28
37206;BME280;23099;42.636;23.198;2023-05-17T11:55:32;91424.50;;;16.78;89.24
37206;BME280;23099;42.636;23.198;2023-05-17T11:58:00;91428.53;;;16.90;89.30
37206;BME280;23099;42.636;23.198;2023-05-17T12:00:28;91439.53;;;16.79;89.29
37206;BME280;23099;42.636;23.198;2023-05-17T12:02:54;91437.53;;;16.83;88.74
37206;BME280;23099;42.636;23.198;2023-05-17T12:05:22;91435.28;;;16.55;91.48
37206;BME280;23099;42.636;23.198;2023-05-17T12:07:48;91426.53;;;16.47;92.61
37206;BME280;23099;42.636;23.198;2023-05-17T12:10:16;91425.09;;;16.43;92.65
37206;BME280;23099;42.636;23.198;2023-05-17T12:12:45;91428.66;;;16.36;94.58
37206;BME280;23099;42.636;23.198;2023-05-17T12:15:17;91426.34;;;16.35;94.15
37206;BME280;23099;42.636;23.198;2023-05-17T12:17:45;91418.53;;;16.44;95.66
37206;BME280;23099;42.636;23.198;2023-05-17T12:20:14;91434.94;;;16.30;93.48
37206;BME280;23099;42.636;23.198;2023-05-17T12:22:51;91415.75;;;16.24;92.27
37206;BME280;23099;42.636;23.198;2023-05-17T12:25:19;91421.00;;;16.31;92.53
37206;BME280;23099;42.636;23.198;2023-05-17T12:27:49;91415.81;;;16.44;91.54
37206;BME280;23099;42.636;23.198;2023-05-17T12:30:16;91419.88;;;16.55;91.26
37206;BME280;23099;42.636;23.198;2023-05-17T12:32:43;91426.66;;;16.40;88.15
37206;BME280;23099;42.636;23.198;2023-05-17T12:35:11;91417.31;;;16.45;91.19
37206;BME280;23099;42.636;23.198;2023-05-17T12:37:38;91411.81;;;16.52;89.48
37206;BME280;23099;42.636;23.198;2023-05-17T12:40:06;91414.97;;;16.47;88.20
37206;BME280;23099;42.636;23.198;2023-05-17T12:42:33;91410.88;;;16.39;86.88
37206;BME280;23099;42.636;23.198;2023-05-17T12:45:02;91415.34;;;16.25;90.47
37206;BME280;23099;42.636;23.198;2023-05-17T12:47:29;91407.47;;;16.35;89.36